createdAt,value
2017-11-05T00:01:19.538Z,16.39
2017-11-05T00:03:21.206Z,16.38
2017-11-05T00:05:22.742Z,16.37
2017-11-05T00:07:24.096Z,16.40
2017-11-05T00:09:25.741Z,16.40
2017-11-05T00:11:28.230Z,16.40
2017-11-05T00:13:29.885Z,16.34
2017-11-05T00:15:31.439Z,16.35
2017-11-05T00:17:33.179Z,16.39
2017-11-05T00:19:34.621Z,16.39
2017-11-05T00:21:36.085Z,16.39
2017-11-05T00:23:37.738Z,16.38
2017-11-05T00:25:39.283Z,16.41
2017-11-05T00:27:40.830Z,16.35
2017-11-05T00:29:42.474Z,16.39
2017-11-05T00:31:44.037Z,16.34
2017-11-05T00:33:45.699Z,16.37
2017-11-05T00:35:47.354Z,16.32
2017-11-05T00:37:49.021Z,16.39
2017-11-05T00:39:50.542Z,16.38
2017-11-05T00:41:51.859Z,16.37
2017-11-05T00:43:53.342Z,16.49
2017-11-05T00:45:54.991Z,16.48
2017-11-05T00:47:56.391Z,16.56
2017-11-05T00:49:59.536Z,16.62
2017-11-05T00:52:02.079Z,16.63
2017-11-05T00:54:03.571Z,16.60
2017-11-05T00:56:05.100Z,16.67
2017-11-05T00:58:06.666Z,16.68
2017-11-05T01:00:08.197Z,16.66
2017-11-05T01:02:09.872Z,16.67
2017-11-05T01:04:11.395Z,16.75
2017-11-05T01:06:12.626Z,16.70
2017-11-05T01:08:13.913Z,16.75
2017-11-05T01:10:15.846Z,16.73
2017-11-05T01:12:17.285Z,16.66
2017-11-05T01:14:18.954Z,16.64
2017-11-05T01:16:20.519Z,16.70
2017-11-05T01:18:22.165Z,16.72
2017-11-05T01:20:23.698Z,16.75
2017-11-05T01:22:25.074Z,16.76
2017-11-05T01:24:26.591Z,16.71
2017-11-05T01:26:28.258Z,16.73
2017-11-05T01:28:29.921Z,16.69
2017-11-05T01:30:31.574Z,16.75
2017-11-05T01:32:33.223Z,16.68
2017-11-05T01:34:34.883Z,16.66
2017-11-05T01:36:36.514Z,16.64
2017-11-05T01:38:38.185Z,16.64
2017-11-05T01:40:39.841Z,16.64
2017-11-05T01:42:41.105Z,16.68
2017-11-05T01:44:42.626Z,16.65
2017-11-05T01:46:44.279Z,16.67
2017-11-05T01:48:45.937Z,16.62
2017-11-05T01:50:48.395Z,16.62
2017-11-05T01:52:49.827Z,16.55
2017-11-05T01:54:51.288Z,16.55
2017-11-05T01:56:52.834Z,16.53
2017-11-05T01:58:54.110Z,16.51
2017-11-05T02:00:55.742Z,16.44
2017-11-05T02:02:57.396Z,16.44
2017-11-05T02:04:59.056Z,16.43
2017-11-05T02:07:00.718Z,16.42
2017-11-05T02:09:02.267Z,16.42
2017-11-05T02:11:03.904Z,16.45
2017-11-05T02:13:05.187Z,16.45
2017-11-05T02:15:06.704Z,16.43
2017-11-05T02:17:08.193Z,16.43
2017-11-05T02:19:09.692Z,16.42
2017-11-05T02:21:11.162Z,16.42
2017-11-05T02:23:12.699Z,16.40
2017-11-05T02:25:14.232Z,16.40
2017-11-05T02:27:15.792Z,16.35
2017-11-05T02:29:17.468Z,16.40
2017-11-05T02:31:18.985Z,16.39
2017-11-05T02:33:20.672Z,16.33
2017-11-05T02:35:21.997Z,16.38
2017-11-05T02:37:23.334Z,16.34
2017-11-05T02:39:24.994Z,16.38
2017-11-05T02:41:26.466Z,16.38
2017-11-05T02:43:27.993Z,16.37
2017-11-05T02:45:30.578Z,16.38
2017-11-05T02:47:32.225Z,16.32
2017-11-05T02:49:33.879Z,16.32
2017-11-05T02:51:35.143Z,16.35
2017-11-05T02:53:37.996Z,16.36
2017-11-05T02:55:39.354Z,16.31
2017-11-05T02:57:40.894Z,16.32
2017-11-05T02:59:42.260Z,16.36
2017-11-05T03:01:43.795Z,16.37
2017-11-05T03:03:45.237Z,16.30
2017-11-05T03:05:46.601Z,16.30
2017-11-05T03:07:48.239Z,16.35
2017-11-05T03:09:49.663Z,16.30
2017-11-05T03:11:51.032Z,16.34
2017-11-05T03:13:52.492Z,16.26
2017-11-05T03:15:54.042Z,16.34
2017-11-05T03:17:55.479Z,16.29
2017-11-05T03:19:57.660Z,16.33
2017-11-05T03:21:59.195Z,16.28
2017-11-05T03:24:00.453Z,16.31
2017-11-05T03:26:05.063Z,16.16
2017-11-05T03:28:06.718Z,16.32
2017-11-05T03:30:08.263Z,16.31
2017-11-05T03:32:09.810Z,16.31
2017-11-05T03:34:11.245Z,16.26
2017-11-05T03:36:12.627Z,16.29
2017-11-05T03:38:14.055Z,16.28
2017-11-05T03:40:15.403Z,16.31
2017-11-05T03:42:16.856Z,16.25
2017-11-05T03:44:18.409Z,16.26
2017-11-05T03:46:20.055Z,16.25
2017-11-05T03:48:21.499Z,16.24
2017-11-05T03:50:23.164Z,16.29
2017-11-05T03:52:24.711Z,16.29
2017-11-05T03:54:26.967Z,16.30
2017-11-05T03:56:28.531Z,16.29
2017-11-05T03:58:29.987Z,16.26
2017-11-05T04:00:31.440Z,16.25
2017-11-05T04:02:32.990Z,16.28
2017-11-05T04:04:34.471Z,16.34
2017-11-05T04:06:35.970Z,16.43
2017-11-05T04:08:37.418Z,16.46
2017-11-05T04:10:39.787Z,16.44
2017-11-05T04:12:41.131Z,16.46
2017-11-05T04:14:42.595Z,16.54
2017-11-05T04:16:44.541Z,16.51
2017-11-05T04:18:45.891Z,16.50
2017-11-05T04:20:47.354Z,16.55
2017-11-05T04:22:49.007Z,16.53
2017-11-05T04:24:50.558Z,16.59
2017-11-05T04:26:52.097Z,16.53
2017-11-05T04:28:53.749Z,16.51
2017-11-05T04:30:56.015Z,16.57
2017-11-05T04:32:57.310Z,16.57
2017-11-05T04:34:59.938Z,16.59
2017-11-05T04:37:01.378Z,16.53
2017-11-05T04:39:02.824Z,16.55
2017-11-05T04:41:05.306Z,16.56
2017-11-05T04:43:06.653Z,16.55
2017-11-05T04:45:08.202Z,16.53
2017-11-05T04:47:09.756Z,16.51
2017-11-05T04:49:11.196Z,16.49
2017-11-05T04:51:13.142Z,16.51
2017-11-05T04:53:15.118Z,16.51
2017-11-05T04:55:16.570Z,16.52
2017-11-05T04:57:18.215Z,16.44
2017-11-05T04:59:19.776Z,16.49
2017-11-05T05:01:21.099Z,16.42
2017-11-05T05:03:22.692Z,16.50
2017-11-05T05:05:24.231Z,16.48
2017-11-05T05:07:25.780Z,16.40
2017-11-05T05:09:27.321Z,16.44
2017-11-05T05:11:28.778Z,16.33
2017-11-05T05:13:30.315Z,16.31
2017-11-05T05:15:32.278Z,16.33
2017-11-05T05:17:33.840Z,16.32
2017-11-05T05:19:35.298Z,16.24
2017-11-05T05:21:36.533Z,16.24
2017-11-05T05:23:38.096Z,16.22
2017-11-05T05:25:39.576Z,16.26
2017-11-05T05:27:41.186Z,16.25
2017-11-05T05:29:42.718Z,16.22
2017-11-05T05:31:44.180Z,16.16
2017-11-05T05:33:45.622Z,16.20
2017-11-05T05:35:47.887Z,16.15
2017-11-05T05:37:50.139Z,16.18
2017-11-05T05:39:51.805Z,16.18
2017-11-05T05:41:53.160Z,16.17
2017-11-05T05:43:54.706Z,16.17
2017-11-05T05:45:56.262Z,16.15
2017-11-05T05:47:57.832Z,16.10
2017-11-05T05:49:59.259Z,16.08
2017-11-05T05:52:00.818Z,16.08
2017-11-05T05:54:02.473Z,16.08
2017-11-05T05:56:04.338Z,16.11
2017-11-05T05:58:08.020Z,15.98
2017-11-05T06:00:09.784Z,16.11
2017-11-05T06:02:11.341Z,16.11
2017-11-05T06:04:12.876Z,16.04
2017-11-05T06:06:14.417Z,16.04
2017-11-05T06:08:16.589Z,16.03
2017-11-05T06:10:18.160Z,16.04
2017-11-05T06:12:19.588Z,16.03
2017-11-05T06:14:21.049Z,16.08
2017-11-05T06:16:22.596Z,16.02
2017-11-05T06:18:24.033Z,16.05
2017-11-05T06:20:25.483Z,16.04
2017-11-05T06:22:27.109Z,15.98
2017-11-05T06:24:28.797Z,16.03
2017-11-05T06:26:30.437Z,16.01
2017-11-05T06:28:31.997Z,16.01
2017-11-05T06:30:33.446Z,16.02
2017-11-05T06:32:34.826Z,15.97
2017-11-05T06:34:36.337Z,16.00
2017-11-05T06:36:37.863Z,16.01
2017-11-05T06:38:39.433Z,16.00
2017-11-05T06:40:41.586Z,16.00
2017-11-05T06:42:43.260Z,16.00
2017-11-05T06:44:44.712Z,15.99
2017-11-05T06:46:46.458Z,15.98
2017-11-05T06:48:47.812Z,15.99
2017-11-05T06:50:49.359Z,15.94
2017-11-05T06:52:51.138Z,15.97
2017-11-05T06:54:52.660Z,15.93
2017-11-05T06:56:54.208Z,15.90
2017-11-05T06:58:55.866Z,15.92
2017-11-05T07:00:58.457Z,15.90
2017-11-05T07:03:00.000Z,15.92
2017-11-05T07:05:01.561Z,15.89
2017-11-05T07:07:03.108Z,15.88
2017-11-05T07:09:04.745Z,15.90
2017-11-05T07:11:06.396Z,15.89
2017-11-05T07:13:08.166Z,15.93
2017-11-05T07:15:09.808Z,15.88
2017-11-05T07:17:11.469Z,15.90
2017-11-05T07:19:13.128Z,15.85
2017-11-05T07:21:14.567Z,15.91
2017-11-05T07:23:16.124Z,15.95
2017-11-05T07:25:17.465Z,16.01
2017-11-05T07:27:19.739Z,16.03
2017-11-05T07:29:21.395Z,16.09
2017-11-05T07:31:22.939Z,16.06
2017-11-05T07:33:24.686Z,16.10
2017-11-05T07:35:26.447Z,16.16
2017-11-05T07:37:27.887Z,16.13
2017-11-05T07:39:29.219Z,16.17
2017-11-05T07:41:30.885Z,16.12
2017-11-05T07:43:32.441Z,16.12
2017-11-05T07:45:33.778Z,16.11
2017-11-05T07:47:35.420Z,16.17
2017-11-05T07:49:36.797Z,16.15
2017-11-05T07:51:38.444Z,16.14
2017-11-05T07:53:40.003Z,16.09
2017-11-05T07:55:41.543Z,16.15
2017-11-05T07:57:42.998Z,16.15
2017-11-05T07:59:44.780Z,16.13
2017-11-05T08:01:46.165Z,16.12
2017-11-05T08:03:47.653Z,16.04
2017-11-05T08:05:49.209Z,16.06
2017-11-05T08:07:50.745Z,16.05
2017-11-05T08:09:52.209Z,16.10
2017-11-05T08:11:53.720Z,16.03
2017-11-05T08:13:55.072Z,16.07
2017-11-05T08:15:56.650Z,15.99
2017-11-05T08:17:58.280Z,15.98
2017-11-05T08:19:59.856Z,16.02
2017-11-05T08:22:01.198Z,15.96
2017-11-05T08:24:02.739Z,15.95
2017-11-05T08:26:04.390Z,16.00
2017-11-05T08:28:05.937Z,15.97
2017-11-05T08:30:07.956Z,15.94
2017-11-05T08:32:09.670Z,15.91
2017-11-05T08:34:11.218Z,15.85
2017-11-05T08:36:12.756Z,15.81
2017-11-05T08:38:14.323Z,15.86
2017-11-05T08:40:15.865Z,15.79
2017-11-05T08:42:17.501Z,15.82
2017-11-05T08:44:19.052Z,15.77
2017-11-05T08:46:20.618Z,15.81
2017-11-05T08:48:22.393Z,15.75
2017-11-05T08:50:23.929Z,15.74
2017-11-05T08:52:25.458Z,15.77
2017-11-05T08:54:27.021Z,15.76
2017-11-05T08:56:28.579Z,15.68
2017-11-05T08:58:30.125Z,15.73
2017-11-05T09:00:31.663Z,15.72
2017-11-05T09:02:33.223Z,15.72
2017-11-05T09:04:34.777Z,15.66
2017-11-05T09:06:36.422Z,15.72
2017-11-05T09:08:37.987Z,15.64
2017-11-05T09:10:39.639Z,15.62
2017-11-05T09:12:41.197Z,15.69
2017-11-05T09:14:42.515Z,15.67
2017-11-05T09:16:43.986Z,15.62
2017-11-05T09:18:45.740Z,15.64
2017-11-05T09:20:47.285Z,15.64
2017-11-05T09:22:48.639Z,15.65
2017-11-05T09:24:50.270Z,15.64
2017-11-05T09:26:53.507Z,15.60
2017-11-05T09:28:55.003Z,15.62
2017-11-05T09:30:56.680Z,15.57
2017-11-05T09:32:58.210Z,15.59
2017-11-05T09:34:59.786Z,15.58
2017-11-05T09:37:01.441Z,15.62
2017-11-05T09:39:02.972Z,15.58
2017-11-05T09:41:04.533Z,15.62
2017-11-05T09:43:06.175Z,15.55
2017-11-05T09:45:07.735Z,15.59
2017-11-05T09:47:09.290Z,15.53
2017-11-05T09:49:10.946Z,15.55
2017-11-05T09:51:12.377Z,15.58
2017-11-05T09:53:13.941Z,15.58
2017-11-05T09:55:15.588Z,15.57
2017-11-05T09:57:17.150Z,15.57
2017-11-05T10:03:33.061Z,15.52
2017-11-05T10:05:34.494Z,15.57
2017-11-05T10:07:36.061Z,15.51
2017-11-05T10:09:37.406Z,15.55
2017-11-05T10:11:38.719Z,15.50
2017-11-05T10:13:40.292Z,15.52
2017-11-05T10:15:42.318Z,15.49
2017-11-05T10:17:43.701Z,15.52
2017-11-05T10:19:45.176Z,15.48
2017-11-05T10:21:46.689Z,15.48
2017-11-05T10:23:48.036Z,15.53
2017-11-05T10:25:49.602Z,15.46
2017-11-05T10:27:51.150Z,15.52
2017-11-05T10:29:52.906Z,15.51
2017-11-05T10:31:54.450Z,15.45
2017-11-05T10:33:55.904Z,15.50
2017-11-05T10:35:57.347Z,15.49
2017-11-05T10:37:58.913Z,15.43
2017-11-05T10:40:00.250Z,15.50
2017-11-05T10:42:01.911Z,15.51
2017-11-05T10:44:03.468Z,15.55
2017-11-05T10:46:04.999Z,15.53
2017-11-05T10:48:06.651Z,15.62
2017-11-05T10:50:08.110Z,15.61
2017-11-05T10:52:09.649Z,15.64
2017-11-05T10:54:10.920Z,15.56
2017-11-05T10:56:12.452Z,15.72
2017-11-05T10:58:15.033Z,15.67
2017-11-05T11:00:16.666Z,15.74
2017-11-05T11:02:18.321Z,15.69
2017-11-05T11:04:19.880Z,15.69
2017-11-05T11:06:21.320Z,15.69
2017-11-05T11:08:22.851Z,15.69
2017-11-05T11:10:24.208Z,15.73
2017-11-05T11:12:25.631Z,15.73
2017-11-05T11:14:27.312Z,15.68
2017-11-05T11:16:29.682Z,15.74
2017-11-05T11:18:31.235Z,15.73
2017-11-05T11:20:32.802Z,15.71
2017-11-05T11:22:34.338Z,15.70
2017-11-05T11:24:36.028Z,15.64
2017-11-05T11:26:37.867Z,15.65
2017-11-05T11:28:39.301Z,15.70
2017-11-05T11:30:40.751Z,15.65
2017-11-05T11:32:42.597Z,15.65
2017-11-05T11:34:44.158Z,15.64
2017-11-05T11:36:45.617Z,15.63
2017-11-05T11:38:47.269Z,15.67
2017-11-05T11:40:48.910Z,15.66
2017-11-05T11:42:50.585Z,15.62
2017-11-05T11:44:52.105Z,15.61
2017-11-05T11:46:53.469Z,15.65
2017-11-05T11:48:55.019Z,15.63
2017-11-05T11:50:56.567Z,15.61
2017-11-05T11:52:57.989Z,15.58
2017-11-05T11:54:59.556Z,15.50
2017-11-05T11:57:01.107Z,15.54
2017-11-05T11:59:02.674Z,15.52
2017-11-05T12:01:04.323Z,15.45
2017-11-05T12:03:05.875Z,15.48
2017-11-05T12:05:07.314Z,15.42
2017-11-05T12:07:08.866Z,15.46
2017-11-05T12:09:10.209Z,15.42
2017-11-05T12:11:11.560Z,14.22
2017-11-05T12:13:13.113Z,15.39
2017-11-05T12:15:14.671Z,15.45
2017-11-05T12:17:16.117Z,15.46
2017-11-05T12:19:17.958Z,15.44
2017-11-05T12:21:19.524Z,15.44
2017-11-05T12:23:21.202Z,15.37
2017-11-05T12:25:22.823Z,15.39
2017-11-05T12:27:24.492Z,15.41
2017-11-05T12:29:26.041Z,15.35
2017-11-05T12:31:27.593Z,15.40
2017-11-05T12:33:29.252Z,15.37
2017-11-05T12:35:30.793Z,15.39
2017-11-05T12:37:32.435Z,15.32
2017-11-05T12:39:34.100Z,15.31
2017-11-05T12:41:35.762Z,15.32
2017-11-05T12:43:37.304Z,15.32
2017-11-05T12:45:39.056Z,15.36
2017-11-05T12:47:40.634Z,15.32
2017-11-05T12:49:42.142Z,15.37
2017-11-05T12:51:43.807Z,15.31
2017-11-05T12:53:45.254Z,15.31
2017-11-05T12:55:46.697Z,15.36
2017-11-05T12:57:48.341Z,15.35
2017-11-05T12:59:49.926Z,15.34
2017-11-05T13:01:51.453Z,15.29
2017-11-05T13:03:53.025Z,15.35
2017-11-05T13:05:54.562Z,15.34
2017-11-05T13:07:56.110Z,15.29
2017-11-05T13:09:57.766Z,15.29
2017-11-05T13:11:59.317Z,15.30
2017-11-05T13:14:00.627Z,15.35
2017-11-05T13:16:02.211Z,15.36
2017-11-05T13:18:03.673Z,15.34
2017-11-05T13:20:05.319Z,15.29
2017-11-05T13:22:06.847Z,15.30
2017-11-05T13:24:08.077Z,15.28
2017-11-05T13:26:09.764Z,15.32
2017-11-05T13:28:11.397Z,15.23
2017-11-05T13:30:12.878Z,15.27
2017-11-05T13:32:14.625Z,15.22
2017-11-05T13:34:18.839Z,15.29
2017-11-05T13:36:20.270Z,15.29
2017-11-05T13:38:21.958Z,15.31
2017-11-05T13:40:23.565Z,15.32
2017-11-05T13:42:25.948Z,15.31
2017-11-05T13:44:27.499Z,15.27
2017-11-05T13:46:29.051Z,15.31
2017-11-05T13:48:31.427Z,15.32
2017-11-05T13:50:32.912Z,15.28
2017-11-05T13:52:34.419Z,15.34
2017-11-05T13:54:36.075Z,15.28
2017-11-05T13:56:38.003Z,15.34
2017-11-05T13:58:39.582Z,15.34
2017-11-05T14:00:41.340Z,15.31
2017-11-05T14:02:42.904Z,15.39
2017-11-05T14:04:44.544Z,15.38
2017-11-05T14:06:46.200Z,15.42
2017-11-05T14:08:47.853Z,15.50
2017-11-05T14:10:49.497Z,15.53
2017-11-05T14:12:51.157Z,15.49
2017-11-05T14:14:52.709Z,15.55
2017-11-05T14:16:54.261Z,15.55
2017-11-05T14:18:55.902Z,15.55
2017-11-05T14:20:57.489Z,15.56
2017-11-05T14:22:59.324Z,15.53
2017-11-05T14:25:01.074Z,15.57
2017-11-05T14:27:02.524Z,15.58
2017-11-05T14:29:04.279Z,15.53
2017-11-05T14:31:06.030Z,15.59
2017-11-05T14:33:07.576Z,15.54
2017-11-05T14:35:09.749Z,15.59
2017-11-05T14:37:11.625Z,15.59
2017-11-05T14:39:13.141Z,15.59
2017-11-05T14:41:14.692Z,15.59
2017-11-05T14:43:16.361Z,15.56
2017-11-05T14:45:18.120Z,15.58
2017-11-05T14:47:19.681Z,15.58
2017-11-05T14:49:21.917Z,15.53
2017-11-05T14:51:23.494Z,15.55
2017-11-05T14:53:25.224Z,15.58
2017-11-05T14:57:34.613Z,15.53
2017-11-05T14:59:36.355Z,15.52
2017-11-05T15:01:37.891Z,15.57
2017-11-05T15:03:39.655Z,15.51
2017-11-05T15:05:42.210Z,15.49
2017-11-05T15:07:45.296Z,15.38
2017-11-05T15:09:48.381Z,15.39
2017-11-05T15:13:57.642Z,15.35
2017-11-05T15:15:59.312Z,15.34
2017-11-05T15:18:01.142Z,15.31
2017-11-05T15:20:03.039Z,15.28
2017-11-05T15:22:04.601Z,15.30
2017-11-05T15:24:10.944Z,15.26
2017-11-05T15:26:13.329Z,15.22
2017-11-05T15:28:15.654Z,15.25
2017-11-05T15:32:30.677Z,15.22
2017-11-05T15:34:32.622Z,15.26
2017-11-05T15:36:36.174Z,15.26
2017-11-05T15:38:42.524Z,15.25
2017-11-05T15:40:46.287Z,15.24
2017-11-05T15:42:50.326Z,15.24
2017-11-05T15:44:53.491Z,15.21
2017-11-05T15:46:58.796Z,15.19
2017-11-05T15:51:13.503Z,15.22
2017-11-05T15:53:17.568Z,15.21
2017-11-05T15:55:19.676Z,15.20
2017-11-05T15:57:21.517Z,15.15
2017-11-05T15:59:24.522Z,15.15
2017-11-05T16:01:26.358Z,15.16
2017-11-05T16:03:28.122Z,15.15
2017-11-05T16:05:29.873Z,15.07
2017-11-05T16:07:31.405Z,15.13
2017-11-05T16:09:32.960Z,15.11
2017-11-05T16:11:34.853Z,15.08
2017-11-05T16:13:36.624Z,15.09
2017-11-05T16:15:38.319Z,15.11
2017-11-05T16:17:40.110Z,15.07
2017-11-05T16:19:44.688Z,15.05
2017-11-05T16:21:47.808Z,15.08
2017-11-05T16:23:49.681Z,15.10
2017-11-05T16:25:51.520Z,15.11
2017-11-05T16:27:53.479Z,15.02
2017-11-05T16:29:55.608Z,15.02
2017-11-05T16:31:57.529Z,15.08
2017-11-05T16:33:59.359Z,15.05
2017-11-05T16:36:01.222Z,15.03
2017-11-05T16:38:02.919Z,14.99
2017-11-05T16:40:04.609Z,15.03
2017-11-05T16:42:06.190Z,15.01
2017-11-05T16:44:08.351Z,15.03
2017-11-05T16:46:11.170Z,15.01
2017-11-05T16:48:13.032Z,14.99
2017-11-05T16:50:14.931Z,15.01
2017-11-05T16:52:22.202Z,14.99
2017-11-05T16:54:27.172Z,14.98
2017-11-05T16:56:32.524Z,14.98
2017-11-05T16:58:36.682Z,15.01
2017-11-05T17:00:38.868Z,14.97
2017-11-05T17:02:40.832Z,14.98
2017-11-05T17:04:42.661Z,14.94
2017-11-05T17:06:44.443Z,14.95
2017-11-05T17:08:46.395Z,14.92
2017-11-05T17:10:49.287Z,14.94
2017-11-05T17:12:51.393Z,14.90
2017-11-05T17:14:53.754Z,14.96
2017-11-05T17:16:59.336Z,14.97
2017-11-05T17:19:02.968Z,14.94
2017-11-05T17:21:05.029Z,14.99
2017-11-05T17:23:06.873Z,14.97
2017-11-05T17:25:10.126Z,15.01
2017-11-05T17:29:22.386Z,15.00
2017-11-05T17:31:25.523Z,15.02
2017-11-05T17:33:29.932Z,14.93
2017-11-05T17:35:34.610Z,14.94
2017-11-05T17:37:39.493Z,14.96
2017-11-05T17:39:41.708Z,14.99
2017-11-05T17:41:43.559Z,14.92
2017-11-05T17:43:46.897Z,14.93
2017-11-05T17:45:49.895Z,14.94
2017-11-05T17:47:52.222Z,14.92
2017-11-05T17:49:54.080Z,14.89
2017-11-05T17:51:55.803Z,14.88
2017-11-05T17:53:57.796Z,14.88
2017-11-05T17:56:01.615Z,14.85
2017-11-05T17:58:04.408Z,14.84
2017-11-05T18:00:06.841Z,14.83
2017-11-05T18:02:08.595Z,14.76
2017-11-05T18:04:10.472Z,14.75
2017-11-05T18:06:12.201Z,14.77
2017-11-05T18:08:13.862Z,14.73
2017-11-05T18:10:15.626Z,14.72
2017-11-05T18:12:17.362Z,14.65
2017-11-05T18:14:18.920Z,14.69
2017-11-05T18:16:20.786Z,14.63
2017-11-05T18:18:22.550Z,14.64
2017-11-05T18:20:24.116Z,14.63
2017-11-05T18:22:27.165Z,14.59
2017-11-05T18:24:28.920Z,14.66
2017-11-05T18:26:30.482Z,14.57
2017-11-05T18:28:32.142Z,14.53
2017-11-05T18:30:34.427Z,14.55
2017-11-05T18:32:36.651Z,14.52
2017-11-05T18:34:40.600Z,14.49
2017-11-05T18:36:42.438Z,14.51
2017-11-05T18:38:45.039Z,14.44
2017-11-05T18:40:47.231Z,14.46
2017-11-05T18:42:49.042Z,14.47
2017-11-05T18:44:51.485Z,14.48
2017-11-05T18:46:53.296Z,14.40
2017-11-05T18:48:55.765Z,14.33
2017-11-05T18:50:58.553Z,14.34
2017-11-05T18:53:01.008Z,14.31
2017-11-05T18:55:02.985Z,14.34
2017-11-05T18:57:05.054Z,14.24
2017-11-05T18:59:07.803Z,14.23
2017-11-05T19:01:10.417Z,14.22
2017-11-05T19:05:18.479Z,14.27
2017-11-05T19:07:20.458Z,14.23
2017-11-05T19:09:22.734Z,14.21
2017-11-05T19:11:25.742Z,14.21
2017-11-05T19:13:31.028Z,14.19
2017-11-05T19:15:32.658Z,14.16
2017-11-05T19:17:35.369Z,14.11
2017-11-05T19:19:40.844Z,14.13
2017-11-05T19:21:42.949Z,14.14
2017-11-05T19:23:44.810Z,14.15
2017-11-05T19:25:46.835Z,14.16
2017-11-05T19:27:48.962Z,14.21
2017-11-05T19:29:51.437Z,14.12
2017-11-05T19:31:53.500Z,14.17
2017-11-05T19:33:55.648Z,14.07
2017-11-05T19:35:57.932Z,14.08
2017-11-05T19:38:00.001Z,14.06
2017-11-05T19:40:04.358Z,14.08
2017-11-05T19:42:06.776Z,14.09
2017-11-05T19:44:08.729Z,14.05
2017-11-05T19:46:10.682Z,14.06
2017-11-05T19:48:13.278Z,14.02
2017-11-05T19:50:16.344Z,13.95
2017-11-05T19:52:18.225Z,13.98
2017-11-05T19:54:20.178Z,13.95
2017-11-05T19:56:22.046Z,13.98
2017-11-05T19:58:24.090Z,14.00
2017-11-05T20:00:25.963Z,13.91
2017-11-05T20:02:28.973Z,13.93
2017-11-05T20:04:31.045Z,13.90
2017-11-05T20:06:32.864Z,13.90
2017-11-05T20:08:34.673Z,13.91
2017-11-05T20:10:36.610Z,13.93
2017-11-05T20:12:38.842Z,14.01
2017-11-05T20:14:40.935Z,13.99
2017-11-05T20:16:43.152Z,14.00
2017-11-05T20:18:44.920Z,13.97
2017-11-05T20:20:46.674Z,13.89
2017-11-05T20:22:48.542Z,13.93
2017-11-05T20:24:50.737Z,13.96
2017-11-05T20:26:52.575Z,13.92
2017-11-05T20:28:54.531Z,13.92
2017-11-05T20:30:56.716Z,13.81
2017-11-05T20:32:58.647Z,13.78
2017-11-05T20:35:00.526Z,13.87
2017-11-05T20:37:02.278Z,13.88
2017-11-05T20:39:04.018Z,13.89
2017-11-05T20:41:05.881Z,13.90
2017-11-05T20:43:07.848Z,13.97
2017-11-05T20:45:09.802Z,13.96
2017-11-05T20:47:11.759Z,13.96
2017-11-05T20:49:13.724Z,13.98
2017-11-05T20:51:15.683Z,13.97
2017-11-05T20:53:17.736Z,13.88
2017-11-05T20:55:19.496Z,13.86
2017-11-05T20:57:21.448Z,13.93
2017-11-05T20:59:23.408Z,13.91
2017-11-05T21:01:25.514Z,13.92
2017-11-05T21:03:27.146Z,13.79
2017-11-05T21:05:29.001Z,13.84
2017-11-05T21:07:32.821Z,13.79
2017-11-05T21:09:34.627Z,13.86
2017-11-05T21:11:36.479Z,13.84
2017-11-05T21:13:38.371Z,13.88
2017-11-05T21:15:40.114Z,13.83
2017-11-05T21:17:41.840Z,13.76
2017-11-05T21:19:43.711Z,13.78
2017-11-05T21:21:45.494Z,13.77
2017-11-05T21:23:47.156Z,13.76
2017-11-05T21:28:07.258Z,13.71
2017-11-05T21:30:08.997Z,13.65
2017-11-05T21:32:11.251Z,13.72
2017-11-05T21:34:13.360Z,13.61
2017-11-05T21:36:15.498Z,13.63
2017-11-05T21:38:17.408Z,13.67
2017-11-05T21:40:20.539Z,13.61
2017-11-05T21:42:25.147Z,13.66
2017-11-05T21:44:27.125Z,13.61
2017-11-05T21:46:30.418Z,13.48
2017-11-05T21:48:32.491Z,13.50
2017-11-05T21:50:35.149Z,13.48
2017-11-05T21:52:37.214Z,13.50
2017-11-05T21:54:39.164Z,13.53
2017-11-05T21:56:41.229Z,13.51
2017-11-05T21:58:43.084Z,13.50
2017-11-05T22:00:44.956Z,13.46
2017-11-05T22:02:46.926Z,13.51
2017-11-05T22:04:48.564Z,13.34
2017-11-05T22:06:50.439Z,13.40
2017-11-05T22:08:52.574Z,13.30
2017-11-05T22:10:54.445Z,13.28
2017-11-05T22:12:56.288Z,13.30
2017-11-05T22:14:58.054Z,13.31
2017-11-05T22:17:00.012Z,13.27
2017-11-05T22:19:02.085Z,13.33
2017-11-05T22:21:04.044Z,13.24
2017-11-05T22:23:05.915Z,13.29
2017-11-05T22:25:07.887Z,13.24
2017-11-05T22:27:10.012Z,13.26
2017-11-05T22:29:11.779Z,13.28
2017-11-05T22:31:13.851Z,13.28
2017-11-05T22:33:15.961Z,13.11
2017-11-05T22:35:17.965Z,13.12
2017-11-05T22:37:19.738Z,13.17
2017-11-05T22:39:21.776Z,13.07
2017-11-05T22:41:23.554Z,13.10
2017-11-05T22:43:25.499Z,13.15
2017-11-05T22:45:27.362Z,13.11
2017-11-05T22:47:29.323Z,13.06
2017-11-05T22:49:33.211Z,13.08
2017-11-05T22:51:35.176Z,13.11
2017-11-05T22:53:37.008Z,13.01
2017-11-05T22:55:38.666Z,13.03
2017-11-05T22:57:40.451Z,13.00
2017-11-05T22:59:42.415Z,12.98
2017-11-05T23:01:44.166Z,13.05
2017-11-05T23:03:46.013Z,12.98
2017-11-05T23:05:47.771Z,12.95
2017-11-05T23:07:49.437Z,12.98
2017-11-05T23:09:51.290Z,13.02
2017-11-05T23:11:53.042Z,12.97
2017-11-05T23:13:54.807Z,12.95
2017-11-05T23:15:56.727Z,12.98
2017-11-05T23:17:58.607Z,12.95
2017-11-05T23:20:00.776Z,12.90
2017-11-05T23:22:02.538Z,12.89
2017-11-05T23:24:04.728Z,12.87
2017-11-05T23:26:06.567Z,12.97
2017-11-05T23:28:08.493Z,12.90
2017-11-05T23:30:10.944Z,12.89
2017-11-05T23:32:12.961Z,12.93
2017-11-05T23:34:14.717Z,12.88
2017-11-05T23:36:16.406Z,12.91
2017-11-05T23:38:18.527Z,12.80
2017-11-05T23:40:20.166Z,12.84
2017-11-05T23:42:23.179Z,12.86
2017-11-05T23:44:25.213Z,12.84
2017-11-05T23:46:26.969Z,12.75
2017-11-05T23:48:28.733Z,12.85
2017-11-05T23:50:30.398Z,12.84
2017-11-05T23:52:32.334Z,12.84
2017-11-05T23:54:35.214Z,12.78
2017-11-05T23:56:36.997Z,12.87
2017-11-05T23:58:39.131Z,12.79
